sensor_id;sensor_type;location;lat;lon;timestamp;P1;durP1;ratioP1;P2;durP2;ratioP2
13090;SDS011;6611;52.604;13.438;2023-05-14T00:00:35;12.53;;;8.67;;
13090;SDS011;6611;52.604;13.438;2023-05-14T00:05:38;12.83;;;7.80;;
13090;SDS011;6611;52.604;13.438;2023-05-14T00:10:39;9.33;;;7.53;;
13090;SDS011;6611;52.604;13.438;2023-05-14T00:15:41;9.97;;;8.60;;
13090;SDS011;6611;52.604;13.438;2023-05-14T00:20:45;9.20;;;8.13;;
13090;SDS011;6611;52.604;13.438;2023-05-14T00:25:46;9.63;;;7.60;;
13090;SDS011;6611;52.604;13.438;2023-05-14T00:30:48;11.07;;;8.23;;
13090;SDS011;6611;52.604;13.438;2023-05-14T00:35:51;9.57;;;7.40;;
13090;SDS011;6611;52.604;13.438;2023-05-14T00:40:53;11.00;;;7.63;;
13090;SDS011;6611;52.604;13.438;2023-05-14T00:45:54;9.67;;;8.37;;
13090;SDS011;6611;52.604;13.438;2023-05-14T00:50:57;10.87;;;8.17;;
13090;SDS011;6611;52.604;13.438;2023-05-14T00:55:59;9.47;;;7.63;;
13090;SDS011;6611;52.604;13.438;2023-05-14T01:01:01;8.97;;;8.07;;
13090;SDS011;6611;52.604;13.438;2023-05-14T01:06:05;9.00;;;7.50;;
13090;SDS011;6611;52.604;13.438;2023-05-14T01:11:16;10.13;;;7.90;;
13090;SDS011;6611;52.604;13.438;2023-05-14T01:16:21;10.17;;;8.27;;
13090;SDS011;6611;52.604;13.438;2023-05-14T01:21:35;10.53;;;7.23;;
13090;SDS011;6611;52.604;13.438;2023-05-14T01:26:37;12.07;;;7.60;;
13090;SDS011;6611;52.604;13.438;2023-05-14T01:31:40;10.27;;;7.27;;
13090;SDS011;6611;52.604;13.438;2023-05-14T01:36:45;10.10;;;7.67;;
13090;SDS011;6611;52.604;13.438;2023-05-14T01:41:48;9.97;;;6.80;;
13090;SDS011;6611;52.604;13.438;2023-05-14T01:46:51;8.30;;;6.50;;
13090;SDS011;6611;52.604;13.438;2023-05-14T01:51:54;8.30;;;6.77;;
13090;SDS011;6611;52.604;13.438;2023-05-14T01:56:56;8.80;;;6.87;;
13090;SDS011;6611;52.604;13.438;2023-05-14T02:01:57;8.77;;;6.93;;
13090;SDS011;6611;52.604;13.438;2023-05-14T02:07:00;10.77;;;7.80;;
13090;SDS011;6611;52.604;13.438;2023-05-14T02:12:02;9.00;;;7.23;;
13090;SDS011;6611;52.604;13.438;2023-05-14T02:17:04;8.53;;;7.63;;
13090;SDS011;6611;52.604;13.438;2023-05-14T02:22:07;8.47;;;7.57;;
13090;SDS011;6611;52.604;13.438;2023-05-14T02:27:09;13.20;;;7.70;;
13090;SDS011;6611;52.604;13.438;2023-05-14T02:32:12;10.27;;;7.83;;
13090;SDS011;6611;52.604;13.438;2023-05-14T02:37:15;10.87;;;6.83;;
13090;SDS011;6611;52.604;13.438;2023-05-14T02:42:16;9.57;;;7.70;;
13090;SDS011;6611;52.604;13.438;2023-05-14T02:47:18;9.03;;;7.27;;
13090;SDS011;6611;52.604;13.438;2023-05-14T02:52:21;8.23;;;6.67;;
13090;SDS011;6611;52.604;13.438;2023-05-14T02:57:23;8.73;;;7.17;;
13090;SDS011;6611;52.604;13.438;2023-05-14T03:02:25;9.57;;;7.47;;
13090;SDS011;6611;52.604;13.438;2023-05-14T03:07:28;9.60;;;7.00;;
13090;SDS011;6611;52.604;13.438;2023-05-14T03:12:30;8.90;;;6.67;;
13090;SDS011;6611;52.604;13.438;2023-05-14T03:17:32;6.97;;;6.27;;
13090;SDS011;6611;52.604;13.438;2023-05-14T03:22:35;8.13;;;6.53;;
13090;SDS011;6611;52.604;13.438;2023-05-14T03:27:36;7.70;;;6.73;;
13090;SDS011;6611;52.604;13.438;2023-05-14T03:32:38;8.60;;;6.90;;
13090;SDS011;6611;52.604;13.438;2023-05-14T03:37:41;10.87;;;6.60;;
13090;SDS011;6611;52.604;13.438;2023-05-14T03:42:43;7.43;;;6.67;;
13090;SDS011;6611;52.604;13.438;2023-05-14T03:47:45;7.27;;;6.50;;
13090;SDS011;6611;52.604;13.438;2023-05-14T03:52:48;8.53;;;6.67;;
13090;SDS011;6611;52.604;13.438;2023-05-14T03:57:49;7.07;;;6.37;;
13090;SDS011;6611;52.604;13.438;2023-05-14T04:02:51;10.53;;;6.87;;
13090;SDS011;6611;52.604;13.438;2023-05-14T04:07:54;9.67;;;6.23;;
13090;SDS011;6611;52.604;13.438;2023-05-14T04:12:57;7.20;;;5.97;;
13090;SDS011;6611;52.604;13.438;2023-05-14T04:17:59;9.27;;;6.13;;
13090;SDS011;6611;52.604;13.438;2023-05-14T04:23:02;7.87;;;5.80;;
13090;SDS011;6611;52.604;13.438;2023-05-14T04:28:04;6.13;;;5.53;;
13090;SDS011;6611;52.604;13.438;2023-05-14T04:33:05;8.60;;;5.50;;
13090;SDS011;6611;52.604;13.438;2023-05-14T04:38:08;5.97;;;5.37;;
13090;SDS011;6611;52.604;13.438;2023-05-14T04:43:10;7.07;;;5.40;;
13090;SDS011;6611;52.604;13.438;2023-05-14T04:48:12;5.90;;;4.80;;
13090;SDS011;6611;52.604;13.438;2023-05-14T04:53:15;7.47;;;5.60;;
13090;SDS011;6611;52.604;13.438;2023-05-14T04:58:16;5.67;;;5.07;;
13090;SDS011;6611;52.604;13.438;2023-05-14T05:03:18;7.07;;;5.70;;
13090;SDS011;6611;52.604;13.438;2023-05-14T05:08:21;5.97;;;5.10;;
13090;SDS011;6611;52.604;13.438;2023-05-14T05:13:23;6.77;;;4.57;;
13090;SDS011;6611;52.604;13.438;2023-05-14T05:18:25;4.73;;;4.33;;
13090;SDS011;6611;52.604;13.438;2023-05-14T05:23:28;4.10;;;3.70;;
13090;SDS011;6611;52.604;13.438;2023-05-14T05:28:29;4.43;;;4.00;;
13090;SDS011;6611;52.604;13.438;2023-05-14T05:33:32;5.20;;;3.90;;
13090;SDS011;6611;52.604;13.438;2023-05-14T05:38:36;6.73;;;3.77;;
13090;SDS011;6611;52.604;13.438;2023-05-14T05:43:37;8.83;;;6.27;;
13090;SDS011;6611;52.604;13.438;2023-05-14T05:48:39;18.33;;;9.47;;
13090;SDS011;6611;52.604;13.438;2023-05-14T05:53:42;28.87;;;14.77;;
13090;SDS011;6611;52.604;13.438;2023-05-14T05:58:44;22.23;;;11.63;;
13090;SDS011;6611;52.604;13.438;2023-05-14T06:03:46;13.73;;;8.27;;
13090;SDS011;6611;52.604;13.438;2023-05-14T06:08:49;10.07;;;6.93;;
13090;SDS011;6611;52.604;13.438;2023-05-14T06:13:50;15.20;;;9.90;;
13090;SDS011;6611;52.604;13.438;2023-05-14T06:18:52;7.90;;;5.20;;
13090;SDS011;6611;52.604;13.438;2023-05-14T06:23:56;7.90;;;4.97;;
13090;SDS011;6611;52.604;13.438;2023-05-14T06:28:57;13.13;;;7.13;;
13090;SDS011;6611;52.604;13.438;2023-05-14T06:34:02;7.20;;;4.67;;
13090;SDS011;6611;52.604;13.438;2023-05-14T06:39:05;6.10;;;3.80;;
13090;SDS011;6611;52.604;13.438;2023-05-14T06:44:08;4.03;;;3.73;;
13090;SDS011;6611;52.604;13.438;2023-05-14T06:49:10;5.37;;;4.20;;
13090;SDS011;6611;52.604;13.438;2023-05-14T06:54:14;6.67;;;3.40;;
13090;SDS011;6611;52.604;13.438;2023-05-14T06:59:16;3.67;;;3.37;;
13090;SDS011;6611;52.604;13.438;2023-05-14T07:04:17;3.80;;;3.30;;
13090;SDS011;6611;52.604;13.438;2023-05-14T07:09:20;4.07;;;3.00;;
13090;SDS011;6611;52.604;13.438;2023-05-14T07:14:22;5.23;;;4.03;;
13090;SDS011;6611;52.604;13.438;2023-05-14T07:19:24;3.63;;;3.10;;
13090;SDS011;6611;52.604;13.438;2023-05-14T07:24:29;4.07;;;3.50;;
13090;SDS011;6611;52.604;13.438;2023-05-14T07:29:30;4.83;;;3.60;;
13090;SDS011;6611;52.604;13.438;2023-05-14T07:34:34;4.97;;;4.37;;
13090;SDS011;6611;52.604;13.438;2023-05-14T07:39:37;4.27;;;2.93;;
13090;SDS011;6611;52.604;13.438;2023-05-14T07:44:40;3.50;;;3.10;;
13090;SDS011;6611;52.604;13.438;2023-05-14T07:49:42;3.90;;;3.00;;
13090;SDS011;6611;52.604;13.438;2023-05-14T07:54:45;3.33;;;2.90;;
13090;SDS011;6611;52.604;13.438;2023-05-14T07:59:47;3.87;;;2.70;;
13090;SDS011;6611;52.604;13.438;2023-05-14T08:04:49;2.97;;;2.67;;
13090;SDS011;6611;52.604;13.438;2023-05-14T08:09:52;3.30;;;3.00;;
13090;SDS011;6611;52.604;13.438;2023-05-14T08:14:53;4.27;;;2.90;;
13090;SDS011;6611;52.604;13.438;2023-05-14T08:19:55;3.40;;;3.10;;
13090;SDS011;6611;52.604;13.438;2023-05-14T08:24:58;4.77;;;2.60;;
13090;SDS011;6611;52.604;13.438;2023-05-14T08:30:03;3.30;;;2.73;;
13090;SDS011;6611;52.604;13.438;2023-05-14T08:35:06;3.73;;;2.90;;
13090;SDS011;6611;52.604;13.438;2023-05-14T08:40:09;3.63;;;2.47;;
13090;SDS011;6611;52.604;13.438;2023-05-14T08:45:16;3.80;;;2.70;;
13090;SDS011;6611;52.604;13.438;2023-05-14T08:50:19;3.77;;;2.60;;
13090;SDS011;6611;52.604;13.438;2023-05-14T08:55:22;3.67;;;2.57;;
13090;SDS011;6611;52.604;13.438;2023-05-14T09:00:25;3.33;;;2.50;;
13090;SDS011;6611;52.604;13.438;2023-05-14T09:05:27;2.73;;;2.47;;
13090;SDS011;6611;52.604;13.438;2023-05-14T09:10:30;3.33;;;2.37;;
13090;SDS011;6611;52.604;13.438;2023-05-14T09:15:32;2.47;;;2.20;;
13090;SDS011;6611;52.604;13.438;2023-05-14T09:20:35;4.50;;;2.63;;
13090;SDS011;6611;52.604;13.438;2023-05-14T09:25:39;3.70;;;2.10;;
13090;SDS011;6611;52.604;13.438;2023-05-14T09:30:48;3.57;;;2.27;;
13090;SDS011;6611;52.604;13.438;2023-05-14T09:35:51;3.23;;;2.00;;
13090;SDS011;6611;52.604;13.438;2023-05-14T09:40:57;4.17;;;2.50;;
13090;SDS011;6611;52.604;13.438;2023-05-14T09:46:00;5.00;;;2.17;;
13090;SDS011;6611;52.604;13.438;2023-05-14T09:51:01;3.30;;;3.00;;
13090;SDS011;6611;52.604;13.438;2023-05-14T09:56:06;2.60;;;2.10;;
13090;SDS011;6611;52.604;13.438;2023-05-14T10:01:07;3.13;;;2.37;;
13090;SDS011;6611;52.604;13.438;2023-05-14T10:06:09;3.53;;;2.70;;
13090;SDS011;6611;52.604;13.438;2023-05-14T10:11:17;2.60;;;2.40;;
13090;SDS011;6611;52.604;13.438;2023-05-14T10:16:23;3.47;;;2.30;;
13090;SDS011;6611;52.604;13.438;2023-05-14T10:21:28;2.77;;;2.40;;
13090;SDS011;6611;52.604;13.438;2023-05-14T10:26:35;3.50;;;2.40;;
13090;SDS011;6611;52.604;13.438;2023-05-14T10:31:45;2.80;;;1.93;;
13090;SDS011;6611;52.604;13.438;2023-05-14T10:36:47;3.80;;;2.30;;
13090;SDS011;6611;52.604;13.438;2023-05-14T10:41:51;2.60;;;2.00;;
13090;SDS011;6611;52.604;13.438;2023-05-14T10:46:53;3.10;;;2.43;;
13090;SDS011;6611;52.604;13.438;2023-05-14T10:51:54;7.23;;;2.57;;
13090;SDS011;6611;52.604;13.438;2023-05-14T10:56:59;2.53;;;2.10;;
13090;SDS011;6611;52.604;13.438;2023-05-14T11:02:03;2.50;;;2.20;;
13090;SDS011;6611;52.604;13.438;2023-05-14T11:07:05;3.50;;;2.53;;
13090;SDS011;6611;52.604;13.438;2023-05-14T11:12:09;2.57;;;2.33;;
13090;SDS011;6611;52.604;13.438;2023-05-14T11:17:11;5.27;;;2.53;;
13090;SDS011;6611;52.604;13.438;2023-05-14T11:22:13;3.93;;;2.40;;
13090;SDS011;6611;52.604;13.438;2023-05-14T11:27:17;3.20;;;2.70;;
13090;SDS011;6611;52.604;13.438;2023-05-14T11:32:25;2.10;;;1.90;;
13090;SDS011;6611;52.604;13.438;2023-05-14T11:37:29;3.40;;;2.87;;
13090;SDS011;6611;52.604;13.438;2023-05-14T11:42:32;3.90;;;2.33;;
13090;SDS011;6611;52.604;13.438;2023-05-14T11:47:39;3.27;;;2.00;;
13090;SDS011;6611;52.604;13.438;2023-05-14T11:52:41;2.80;;;2.43;;
13090;SDS011;6611;52.604;13.438;2023-05-14T11:57:44;2.90;;;2.27;;
13090;SDS011;6611;52.604;13.438;2023-05-14T12:02:49;3.47;;;2.30;;
13090;SDS011;6611;52.604;13.438;2023-05-14T12:07:51;3.87;;;2.30;;
13090;SDS011;6611;52.604;13.438;2023-05-14T12:12:56;5.77;;;2.80;;
13090;SDS011;6611;52.604;13.438;2023-05-14T12:17:58;2.50;;;2.20;;
13090;SDS011;6611;52.604;13.438;2023-05-14T12:23:00;2.50;;;2.27;;
13090;SDS011;6611;52.604;13.438;2023-05-14T12:28:03;3.57;;;2.47;;
13090;SDS011;6611;52.604;13.438;2023-05-14T12:33:20;3.87;;;2.20;;
13090;SDS011;6611;52.604;13.438;2023-05-14T12:38:23;2.43;;;2.23;;
13090;SDS011;6611;52.604;13.438;2023-05-14T12:43:26;2.73;;;2.33;;
13090;SDS011;6611;52.604;13.438;2023-05-14T12:48:30;8.00;;;2.47;;
13090;SDS011;6611;52.604;13.438;2023-05-14T12:53:32;3.67;;;2.40;;
13090;SDS011;6611;52.604;13.438;2023-05-14T12:58:35;2.43;;;1.90;;
13090;SDS011;6611;52.604;13.438;2023-05-14T13:03:37;2.63;;;2.20;;
13090;SDS011;6611;52.604;13.438;2023-05-14T13:08:39;2.60;;;2.40;;
13090;SDS011;6611;52.604;13.438;2023-05-14T13:13:43;3.00;;;2.60;;
13090;SDS011;6611;52.604;13.438;2023-05-14T13:18:54;4.03;;;2.27;;
13090;SDS011;6611;52.604;13.438;2023-05-14T13:23:58;3.47;;;2.20;;
13090;SDS011;6611;52.604;13.438;2023-05-14T13:29:02;3.67;;;2.07;;
13090;SDS011;6611;52.604;13.438;2023-05-14T13:34:07;3.03;;;2.47;;
13090;SDS011;6611;52.604;13.438;2023-05-14T13:39:12;2.73;;;2.10;;
13090;SDS011;6611;52.604;13.438;2023-05-14T13:44:27;2.40;;;2.20;;
13090;SDS011;6611;52.604;13.438;2023-05-14T13:49:31;4.67;;;2.30;;
13090;SDS011;6611;52.604;13.438;2023-05-14T13:54:35;3.70;;;2.30;;
13090;SDS011;6611;52.604;13.438;2023-05-14T13:59:40;2.40;;;2.20;;
13090;SDS011;6611;52.604;13.438;2023-05-14T14:04:42;3.40;;;2.10;;
13090;SDS011;6611;52.604;13.438;2023-05-14T14:09:44;3.07;;;2.20;;
13090;SDS011;6611;52.604;13.438;2023-05-14T14:14:47;2.27;;;2.07;;
13090;SDS011;6611;52.604;13.438;2023-05-14T14:19:50;5.50;;;2.30;;
13090;SDS011;6611;52.604;13.438;2023-05-14T14:24:52;2.90;;;2.10;;
13090;SDS011;6611;52.604;13.438;2023-05-14T14:29:55;2.97;;;2.30;;
13090;SDS011;6611;52.604;13.438;2023-05-14T14:35:00;3.07;;;2.00;;
13090;SDS011;6611;52.604;13.438;2023-05-14T14:40:02;4.83;;;2.40;;
13090;SDS011;6611;52.604;13.438;2023-05-14T14:45:08;4.77;;;2.77;;
13090;SDS011;6611;52.604;13.438;2023-05-14T14:50:14;3.60;;;2.23;;
13090;SDS011;6611;52.604;13.438;2023-05-14T14:55:19;5.23;;;2.30;;
13090;SDS011;6611;52.604;13.438;2023-05-14T15:00:23;4.23;;;2.33;;
13090;SDS011;6611;52.604;13.438;2023-05-14T15:05:25;4.03;;;2.57;;
13090;SDS011;6611;52.604;13.438;2023-05-14T15:10:27;2.37;;;2.17;;
13090;SDS011;6611;52.604;13.438;2023-05-14T15:15:38;2.83;;;2.30;;
13090;SDS011;6611;52.604;13.438;2023-05-14T15:20:43;2.63;;;2.43;;
13090;SDS011;6611;52.604;13.438;2023-05-14T15:25:49;2.23;;;1.97;;
13090;SDS011;6611;52.604;13.438;2023-05-14T15:30:52;2.50;;;2.00;;
13090;SDS011;6611;52.604;13.438;2023-05-14T15:35:56;2.07;;;1.87;;
13090;SDS011;6611;52.604;13.438;2023-05-14T15:41:01;3.73;;;2.20;;
13090;SDS011;6611;52.604;13.438;2023-05-14T15:46:07;2.63;;;2.13;;
13090;SDS011;6611;52.604;13.438;2023-05-14T15:51:09;2.20;;;2.00;;
13090;SDS011;6611;52.604;13.438;2023-05-14T15:56:11;3.13;;;2.13;;
13090;SDS011;6611;52.604;13.438;2023-05-14T16:01:16;2.80;;;2.20;;
13090;SDS011;6611;52.604;13.438;2023-05-14T16:06:18;3.23;;;2.70;;
13090;SDS011;6611;52.604;13.438;2023-05-14T16:11:20;3.17;;;2.33;;
13090;SDS011;6611;52.604;13.438;2023-05-14T16:16:23;2.90;;;2.60;;
13090;SDS011;6611;52.604;13.438;2023-05-14T16:21:27;2.43;;;2.23;;
13090;SDS011;6611;52.604;13.438;2023-05-14T16:26:29;2.80;;;2.20;;
13090;SDS011;6611;52.604;13.438;2023-05-14T16:31:32;2.70;;;2.47;;
13090;SDS011;6611;52.604;13.438;2023-05-14T16:36:36;2.73;;;2.30;;
13090;SDS011;6611;52.604;13.438;2023-05-14T16:41:41;4.07;;;2.27;;
13090;SDS011;6611;52.604;13.438;2023-05-14T16:46:44;2.53;;;2.33;;
13090;SDS011;6611;52.604;13.438;2023-05-14T16:51:47;3.83;;;2.50;;
13090;SDS011;6611;52.604;13.438;2023-05-14T16:56:50;4.33;;;2.70;;
13090;SDS011;6611;52.604;13.438;2023-05-14T17:01:54;3.90;;;2.63;;
13090;SDS011;6611;52.604;13.438;2023-05-14T17:07:00;2.87;;;2.50;;
13090;SDS011;6611;52.604;13.438;2023-05-14T17:12:03;3.77;;;2.60;;
13090;SDS011;6611;52.604;13.438;2023-05-14T17:17:06;3.43;;;2.80;;
13090;SDS011;6611;52.604;13.438;2023-05-14T17:22:08;2.77;;;2.33;;
13090;SDS011;6611;52.604;13.438;2023-05-14T17:27:12;3.00;;;2.50;;
13090;SDS011;6611;52.604;13.438;2023-05-14T17:32:18;4.77;;;2.60;;
13090;SDS011;6611;52.604;13.438;2023-05-14T17:37:20;3.10;;;2.43;;
13090;SDS011;6611;52.604;13.438;2023-05-14T17:42:25;2.97;;;2.30;;
13090;SDS011;6611;52.604;13.438;2023-05-14T17:47:28;2.50;;;2.30;;
13090;SDS011;6611;52.604;13.438;2023-05-14T17:52:32;4.60;;;2.60;;
13090;SDS011;6611;52.604;13.438;2023-05-14T17:57:37;5.40;;;3.73;;
13090;SDS011;6611;52.604;13.438;2023-05-14T18:02:40;7.93;;;6.20;;
13090;SDS011;6611;52.604;13.438;2023-05-14T18:07:42;9.40;;;5.60;;
13090;SDS011;6611;52.604;13.438;2023-05-14T18:12:43;7.13;;;4.33;;
13090;SDS011;6611;52.604;13.438;2023-05-14T18:17:50;3.50;;;3.13;;
13090;SDS011;6611;52.604;13.438;2023-05-14T18:22:55;4.40;;;3.23;;
13090;SDS011;6611;52.604;13.438;2023-05-14T18:27:57;3.23;;;2.93;;
13090;SDS011;6611;52.604;13.438;2023-05-14T18:33:00;4.17;;;3.43;;
13090;SDS011;6611;52.604;13.438;2023-05-14T18:38:02;5.57;;;3.10;;
13090;SDS011;6611;52.604;13.438;2023-05-14T18:43:06;5.97;;;3.40;;
13090;SDS011;6611;52.604;13.438;2023-05-14T18:48:11;5.33;;;3.87;;
13090;SDS011;6611;52.604;13.438;2023-05-14T18:53:16;6.63;;;4.47;;
13090;SDS011;6611;52.604;13.438;2023-05-14T18:58:18;7.57;;;4.73;;
13090;SDS011;6611;52.604;13.438;2023-05-14T19:03:21;6.70;;;4.33;;
13090;SDS011;6611;52.604;13.438;2023-05-14T19:08:23;6.57;;;4.07;;
13090;SDS011;6611;52.604;13.438;2023-05-14T19:13:25;4.83;;;4.03;;
13090;SDS011;6611;52.604;13.438;2023-05-14T19:18:28;5.37;;;4.23;;
13090;SDS011;6611;52.604;13.438;2023-05-14T19:23:30;7.33;;;4.70;;
13090;SDS011;6611;52.604;13.438;2023-05-14T19:28:32;6.37;;;4.50;;
13090;SDS011;6611;52.604;13.438;2023-05-14T19:33:35;5.57;;;4.33;;
13090;SDS011;6611;52.604;13.438;2023-05-14T19:38:37;6.10;;;5.00;;
13090;SDS011;6611;52.604;13.438;2023-05-14T19:43:39;6.63;;;5.47;;
13090;SDS011;6611;52.604;13.438;2023-05-14T19:48:42;7.57;;;5.97;;
13090;SDS011;6611;52.604;13.438;2023-05-14T19:53:44;7.87;;;5.80;;
13090;SDS011;6611;52.604;13.438;2023-05-14T19:58:45;6.40;;;5.23;;
13090;SDS011;6611;52.604;13.438;2023-05-14T20:03:48;5.57;;;4.90;;
13090;SDS011;6611;52.604;13.438;2023-05-14T20:08:50;6.03;;;5.00;;
13090;SDS011;6611;52.604;13.438;2023-05-14T20:13:52;7.90;;;4.43;;
13090;SDS011;6611;52.604;13.438;2023-05-14T20:18:55;6.33;;;4.50;;
13090;SDS011;6611;52.604;13.438;2023-05-14T20:23:56;5.57;;;4.20;;
13090;SDS011;6611;52.604;13.438;2023-05-14T20:28:58;5.70;;;4.60;;
13090;SDS011;6611;52.604;13.438;2023-05-14T20:34:01;6.03;;;4.80;;
13090;SDS011;6611;52.604;13.438;2023-05-14T20:39:03;7.13;;;5.77;;
13090;SDS011;6611;52.604;13.438;2023-05-14T20:44:05;7.20;;;5.67;;
13090;SDS011;6611;52.604;13.438;2023-05-14T20:49:08;6.63;;;5.37;;
13090;SDS011;6611;52.604;13.438;2023-05-14T20:54:10;5.87;;;5.27;;
13090;SDS011;6611;52.604;13.438;2023-05-14T20:59:12;5.57;;;4.67;;
13090;SDS011;6611;52.604;13.438;2023-05-14T21:04:15;6.10;;;5.37;;
13090;SDS011;6611;52.604;13.438;2023-05-14T21:09:17;7.43;;;5.27;;
13090;SDS011;6611;52.604;13.438;2023-05-14T21:14:19;9.60;;;4.87;;
13090;SDS011;6611;52.604;13.438;2023-05-14T21:19:23;5.73;;;5.17;;
13090;SDS011;6611;52.604;13.438;2023-05-14T21:24:24;6.37;;;5.40;;
13090;SDS011;6611;52.604;13.438;2023-05-14T21:29:26;18.23;;;5.67;;
13090;SDS011;6611;52.604;13.438;2023-05-14T21:34:29;7.77;;;4.93;;
13090;SDS011;6611;52.604;13.438;2023-05-14T21:39:31;6.30;;;4.70;;
13090;SDS011;6611;52.604;13.438;2023-05-14T21:44:33;6.57;;;5.23;;
13090;SDS011;6611;52.604;13.438;2023-05-14T21:49:36;5.63;;;4.70;;
13090;SDS011;6611;52.604;13.438;2023-05-14T21:54:38;6.90;;;5.40;;
13090;SDS011;6611;52.604;13.438;2023-05-14T21:59:40;5.90;;;5.00;;
13090;SDS011;6611;52.604;13.438;2023-05-14T22:04:43;6.27;;;4.87;;
13090;SDS011;6611;52.604;13.438;2023-05-14T22:09:44;6.60;;;5.63;;
13090;SDS011;6611;52.604;13.438;2023-05-14T22:14:46;5.60;;;5.10;;
13090;SDS011;6611;52.604;13.438;2023-05-14T22:19:49;7.37;;;5.77;;
13090;SDS011;6611;52.604;13.438;2023-05-14T22:24:51;6.80;;;6.10;;
13090;SDS011;6611;52.604;13.438;2023-05-14T22:29:53;8.07;;;5.90;;
13090;SDS011;6611;52.604;13.438;2023-05-14T22:34:56;9.80;;;6.20;;
13090;SDS011;6611;52.604;13.438;2023-05-14T22:39:58;8.90;;;6.90;;
13090;SDS011;6611;52.604;13.438;2023-05-14T22:45:01;8.50;;;6.27;;
13090;SDS011;6611;52.604;13.438;2023-05-14T22:50:04;8.33;;;6.83;;
13090;SDS011;6611;52.604;13.438;2023-05-14T22:55:10;9.97;;;6.27;;
13090;SDS011;6611;52.604;13.438;2023-05-14T23:00:12;9.87;;;6.60;;
13090;SDS011;6611;52.604;13.438;2023-05-14T23:05:16;10.83;;;7.50;;
13090;SDS011;6611;52.604;13.438;2023-05-14T23:10:17;11.67;;;7.53;;
13090;SDS011;6611;52.604;13.438;2023-05-14T23:15:19;10.17;;;7.80;;
13090;SDS011;6611;52.604;13.438;2023-05-14T23:20:22;9.90;;;8.13;;
13090;SDS011;6611;52.604;13.438;2023-05-14T23:25:24;8.70;;;7.63;;
13090;SDS011;6611;52.604;13.438;2023-05-14T23:30:26;10.73;;;7.97;;
13090;SDS011;6611;52.604;13.438;2023-05-14T23:35:29;11.00;;;8.13;;
13090;SDS011;6611;52.604;13.438;2023-05-14T23:40:30;10.60;;;7.57;;
13090;SDS011;6611;52.604;13.438;2023-05-14T23:45:32;10.47;;;8.23;;
13090;SDS011;6611;52.604;13.438;2023-05-14T23:50:36;11.67;;;7.50;;
13090;SDS011;6611;52.604;13.438;2023-05-14T23:55:37;10.93;;;7.77;;
